Time;durP1;ratioP1;P1;durP2;ratioP2;P2;SDS_P1;SDS_P2;PMS_P1;PMS_P2;Temp;Humidity;BMP_temperature;BMP_pressure;BME280_temperature;BME280_humidity;BME280_pressure;Samples;Min_cycle;Max_cycle;Signal;HPM_P1;HPM_P2
2023/09/04 00:00:29;;;;;;;5.65;4.25;;;18.40;99.90;;;;;;6220651;22;20012;-71
2023/09/04 00:02:55;;;;;;;4.95;3.92;;;18.30;99.90;;;;;;6247223;23;20010;-71
2023/09/04 00:05:20;;;;;;;5.00;4.30;;;18.30;99.90;;;;;;6220373;23;20070;-70
2023/09/04 00:07:46;;;;;;;5.88;4.50;;;18.30;99.90;;;;;;6247352;23;20082;-71
2023/09/04 00:10:12;;;;;;;5.55;4.57;;;18.30;99.90;;;;;;6247798;23;20000;-70
2023/09/04 00:12:38;;;;;;;5.15;4.20;;;18.30;99.90;;;;;;6247388;22;20008;-70
2023/09/04 00:15:05;;;;;;;7.22;4.60;;;18.20;99.90;;;;;;6247193;23;20423;-71
2023/09/04 00:17:31;;;;;;;4.70;4.10;;;18.20;99.90;;;;;;6247287;23;20004;-71
2023/09/04 00:19:56;;;;;;;6.10;4.28;;;18.10;99.90;;;;;;6247307;23;20046;-71
2023/09/04 00:22:22;;;;;;;5.80;4.82;;;18.10;99.90;;;;;;6246659;22;20004;-71
2023/09/04 00:24:48;;;;;;;5.18;4.18;;;18.00;99.90;;;;;;6220387;23;20015;-71
2023/09/04 00:27:14;;;;;;;6.95;5.03;;;18.00;99.90;;;;;;6247106;23;20027;-71
2023/09/04 00:29:39;;;;;;;5.95;4.28;;;18.00;99.90;;;;;;6247136;23;20046;-71
2023/09/04 00:32:06;;;;;;;6.25;4.88;;;18.00;99.90;;;;;;6247244;22;20008;-71
2023/09/04 00:34:32;;;;;;;5.18;4.15;;;18.00;99.90;;;;;;6220618;23;20032;-71
2023/09/04 00:36:58;;;;;;;5.88;4.45;;;18.00;99.90;;;;;;6247056;23;20004;-71
2023/09/04 00:39:23;;;;;;;7.43;4.80;;;18.00;99.90;;;;;;6220063;23;20043;-70
2023/09/04 00:41:49;;;;;;;5.43;4.57;;;18.00;99.90;;;;;;6220224;23;20086;-71
2023/09/04 00:44:15;;;;;;;5.78;4.88;;;18.00;99.90;;;;;;6247333;23;20050;-70
2023/09/04 00:46:41;;;;;;;5.45;4.30;;;18.00;99.90;;;;;;6247532;23;20442;-71
2023/09/04 00:49:08;;;;;;;5.43;4.15;;;18.00;99.90;;;;;;6247997;23;20007;-71
2023/09/04 00:51:34;;;;;;;5.88;4.60;;;17.90;99.90;;;;;;6247349;22;20011;-71
2023/09/04 00:54:00;;;;;;;5.85;4.38;;;17.90;99.90;;;;;;6247173;23;20304;-71
2023/09/04 00:56:26;;;;;;;5.85;4.55;;;17.90;99.90;;;;;;6247085;23;20071;-71
2023/09/04 00:58:52;;;;;;;5.15;4.28;;;17.80;99.90;;;;;;6220774;23;20043;-71
2023/09/04 01:01:18;;;;;;;4.63;4.07;;;17.80;99.90;;;;;;6220511;23;20004;-71
2023/09/04 01:03:44;;;;;;;5.53;4.30;;;17.80;99.90;;;;;;6247032;23;20099;-71
2023/09/04 01:06:09;;;;;;;6.43;5.07;;;17.80;99.90;;;;;;6247267;23;20004;-71
2023/09/04 01:08:36;;;;;;;6.72;4.25;;;17.80;99.90;;;;;;6220127;23;19996;-70
2023/09/04 01:11:18;;;;;;;5.55;4.60;;;17.80;99.90;;;;;;6251151;22;20000;-71
2023/09/04 01:13:48;;;;;;;5.50;4.70;;;17.80;99.90;;;;;;6250646;23;20050;-71
2023/09/04 01:16:16;;;;;;;5.28;4.05;;;17.80;99.90;;;;;;6247102;23;20004;-71
2023/09/04 01:18:42;;;;;;;7.00;4.68;;;17.70;99.90;;;;;;6246066;23;20012;-70
2023/09/04 01:21:07;;;;;;;5.80;4.32;;;17.70;99.90;;;;;;6219862;23;20000;-71
2023/09/04 01:23:33;;;;;;;5.75;4.43;;;17.60;99.90;;;;;;6219765;23;20005;-70
2023/09/04 01:26:34;;;;;;;5.00;4.45;;;17.70;99.90;;;;;;6219706;23;20335;-70
2023/09/04 01:29:16;;;;;;;6.38;4.75;;;17.60;99.90;;;;;;6138880;23;20076;-70
2023/09/04 01:31:54;;;;;;;5.72;4.28;;;17.50;99.90;;;;;;6219946;23;20000;-71
2023/09/04 01:34:26;;;;;;;6.55;4.50;;;17.50;99.90;;;;;;6246428;23;20008;-70
2023/09/04 01:36:57;;;;;;;6.47;4.53;;;17.50;99.90;;;;;;6246531;23;20003;-71
2023/09/04 01:39:23;;;;;;;8.65;4.95;;;17.50;99.90;;;;;;6219311;23;20007;-71
2023/09/04 01:41:49;;;;;;;6.10;4.50;;;17.50;99.90;;;;;;6221906;23;20063;-70
2023/09/04 01:44:15;;;;;;;6.20;4.72;;;17.40;99.90;;;;;;6220828;23;20315;-70
2023/09/04 01:46:41;;;;;;;5.00;4.50;;;17.40;99.90;;;;;;6246802;23;20415;-71
2023/09/04 01:49:07;;;;;;;5.70;5.10;;;17.30;99.90;;;;;;6246556;23;20001;-71
2023/09/04 01:51:33;;;;;;;6.82;4.43;;;17.30;99.90;;;;;;6231822;22;20053;-70
2023/09/04 01:53:59;;;;;;;6.95;4.70;;;17.20;99.90;;;;;;6249081;22;20008;-70
2023/09/04 01:56:24;;;;;;;5.45;4.38;;;17.20;99.90;;;;;;6277085;22;20004;-70
2023/09/04 01:58:50;;;;;;;5.43;4.57;;;17.10;99.90;;;;;;6276983;22;19999;-70
2023/09/04 02:01:15;;;;;;;5.82;4.40;;;17.00;99.90;;;;;;6273208;22;20018;-70
2023/09/04 02:03:44;;;;;;;7.35;5.10;;;17.00;99.90;;;;;;6246361;23;20004;-70
2023/09/04 02:06:10;;;;;;;5.20;4.68;;;17.00;99.90;;;;;;6245986;23;19996;-71
2023/09/04 02:08:35;;;;;;;5.70;4.55;;;17.00;99.90;;;;;;6218875;23;20371;-70
2023/09/04 02:11:01;;;;;;;7.03;4.77;;;16.90;99.90;;;;;;6245751;22;20023;-70
2023/09/04 02:13:26;;;;;;;6.85;4.65;;;16.90;99.90;;;;;;6246170;23;20403;-70
2023/09/04 02:15:52;;;;;;;6.03;4.70;;;16.80;99.90;;;;;;6245891;23;20330;-70
2023/09/04 02:18:17;;;;;;;6.38;5.25;;;16.80;99.90;;;;;;6219222;23;20238;-70
2023/09/04 02:20:45;;;;;;;7.00;5.15;;;16.80;99.90;;;;;;6246299;23;20011;-70
2023/09/04 02:23:10;;;;;;;5.32;4.45;;;16.80;99.90;;;;;;6218597;23;20031;-70
2023/09/04 02:25:36;;;;;;;5.30;4.30;;;16.80;99.90;;;;;;6246160;23;20364;-70
2023/09/04 02:28:02;;;;;;;6.75;5.15;;;16.80;99.90;;;;;;6246138;23;20051;-70
2023/09/04 02:30:27;;;;;;;7.03;4.57;;;16.80;99.90;;;;;;6219320;23;20000;-70
2023/09/04 02:32:58;;;;;;;4.90;4.40;;;16.80;99.90;;;;;;6246815;22;20054;-70
2023/09/04 02:35:24;;;;;;;9.07;5.32;;;16.70;99.90;;;;;;6246672;23;20042;-70
2023/09/04 02:37:50;;;;;;;5.70;4.60;;;16.70;99.90;;;;;;6245616;23;20000;-70
2023/09/04 02:40:15;;;;;;;8.93;4.97;;;16.70;99.90;;;;;;6245930;23;20382;-70
2023/09/04 02:42:41;;;;;;;7.07;5.60;;;16.70;99.90;;;;;;6245551;22;20350;-70
2023/09/04 02:45:08;;;;;;;6.57;4.70;;;16.70;99.90;;;;;;6245897;23;20805;-70
2023/09/04 02:47:35;;;;;;;7.28;4.88;;;16.70;99.90;;;;;;6245837;23;20431;-70
2023/09/04 02:50:01;;;;;;;5.40;4.60;;;16.60;99.90;;;;;;6245943;23;20000;-70
2023/09/04 02:52:29;;;;;;;6.45;4.55;;;16.70;99.90;;;;;;6245639;22;20019;-70
2023/09/04 02:54:55;;;;;;;6.47;4.90;;;16.70;99.90;;;;;;6218651;23;20445;-70
2023/09/04 02:57:21;;;;;;;5.47;4.45;;;16.70;99.90;;;;;;6246387;23;20004;-70
2023/09/04 02:59:46;;;;;;;6.70;4.87;;;16.70;99.90;;;;;;6245803;23;20464;-70
2023/09/04 03:02:12;;;;;;;5.72;4.90;;;16.70;99.90;;;;;;6245720;22;20447;-70
2023/09/04 03:04:37;;;;;;;5.55;4.50;;;16.70;99.90;;;;;;6246112;23;20323;-70
2023/09/04 03:07:03;;;;;;;5.87;4.83;;;16.70;99.90;;;;;;6246196;23;20000;-70
2023/09/04 03:09:28;;;;;;;4.93;4.15;;;16.70;99.90;;;;;;6245515;23;20004;-70
2023/09/04 03:11:54;;;;;;;6.77;4.40;;;16.70;99.90;;;;;;6245666;22;19996;-70
2023/09/04 03:14:19;;;;;;;8.05;4.90;;;16.70;99.90;;;;;;6246484;23;20026;-70
2023/09/04 03:16:45;;;;;;;7.87;4.97;;;16.70;99.90;;;;;;6246179;23;20075;-70
2023/09/04 03:19:10;;;;;;;8.85;4.40;;;16.70;99.90;;;;;;6246664;23;20019;-70
2023/09/04 03:21:36;;;;;;;7.72;4.60;;;16.70;99.90;;;;;;6245761;22;20000;-70
2023/09/04 03:24:01;;;;;;;10.93;5.63;;;16.70;99.90;;;;;;6218323;23;20000;-69
2023/09/04 03:26:27;;;;;;;5.20;4.47;;;16.70;99.90;;;;;;6245582;23;20000;-70
2023/09/04 03:28:53;;;;;;;6.88;4.63;;;16.60;99.90;;;;;;6246728;23;20003;-71
2023/09/04 03:31:18;;;;;;;5.82;4.43;;;16.60;99.90;;;;;;6218887;22;20004;-70
2023/09/04 03:33:44;;;;;;;5.90;4.10;;;16.60;99.90;;;;;;6218783;23;20008;-70
2023/09/04 03:36:11;;;;;;;5.75;4.93;;;16.60;99.90;;;;;;6245609;23;20372;-69
2023/09/04 03:38:37;;;;;;;4.68;4.28;;;16.50;99.90;;;;;;6218349;23;20422;-70
2023/09/04 03:41:03;;;;;;;5.97;4.72;;;16.50;99.90;;;;;;6219223;22;20083;-70
2023/09/04 03:43:29;;;;;;;5.47;4.50;;;16.60;99.90;;;;;;6220489;23;20038;-69
2023/09/04 03:45:54;;;;;;;6.70;4.60;;;16.50;99.90;;;;;;6247677;23;19996;-70
2023/09/04 03:48:20;;;;;;;7.10;4.40;;;16.60;99.90;;;;;;6247336;23;20077;-69
2023/09/04 03:50:45;;;;;;;5.80;4.45;;;16.60;99.90;;;;;;6247353;23;20055;-70
2023/09/04 03:53:11;;;;;;;6.10;4.17;;;16.60;99.90;;;;;;6220401;23;20903;-69
2023/09/04 03:55:37;;;;;;;7.13;5.10;;;16.50;99.90;;;;;;6247357;23;20135;-70
2023/09/04 03:58:03;;;;;;;6.05;4.82;;;16.50;99.90;;;;;;6221070;23;20004;-70
2023/09/04 04:00:30;;;;;;;5.03;4.50;;;16.50;99.90;;;;;;6247367;23;20053;-69
2023/09/04 04:02:57;;;;;;;6.53;4.97;;;16.50;99.90;;;;;;6247272;22;20000;-70
2023/09/04 04:05:23;;;;;;;6.65;4.80;;;16.50;99.90;;;;;;6221101;23;20003;-70
2023/09/04 04:07:49;;;;;;;5.70;4.57;;;16.40;99.90;;;;;;6220875;23;20051;-71
2023/09/04 04:10:15;;;;;;;8.07;4.47;;;16.50;99.90;;;;;;6247527;23;19996;-70
2023/09/04 04:12:40;;;;;;;6.07;4.53;;;16.50;99.90;;;;;;6247942;22;20292;-71
2023/09/04 04:15:07;;;;;;;5.35;4.40;;;16.40;99.90;;;;;;6255747;23;20000;-70
2023/09/04 04:17:37;;;;;;;5.25;4.60;;;16.50;99.90;;;;;;6248297;23;20008;-70
2023/09/04 04:20:09;;;;;;;8.63;5.30;;;16.40;99.90;;;;;;6247301;23;20007;-70
2023/09/04 04:22:34;;;;;;;6.18;5.00;;;16.40;99.90;;;;;;6220039;23;20010;-69
2023/09/04 04:25:00;;;;;;;9.63;4.93;;;16.30;99.90;;;;;;6246597;23;20079;-70
2023/09/04 04:27:25;;;;;;;7.40;4.97;;;16.30;99.90;;;;;;6220677;23;20095;-70
2023/09/04 04:29:54;;;;;;;6.73;4.17;;;16.40;99.90;;;;;;6247244;23;20079;-70
2023/09/04 04:32:20;;;;;;;4.47;4.07;;;16.30;99.90;;;;;;6246623;22;20079;-70
2023/09/04 04:34:45;;;;;;;8.20;5.23;;;16.30;99.90;;;;;;6220125;23;20091;-71
2023/09/04 04:37:11;;;;;;;8.27;4.77;;;16.20;99.90;;;;;;6246687;23;20092;-69
2023/09/04 04:39:37;;;;;;;7.32;5.40;;;16.20;99.90;;;;;;6219659;23;20004;-70
2023/09/04 04:42:03;;;;;;;9.60;4.70;;;16.20;99.90;;;;;;6247176;22;20343;-70
2023/09/04 04:44:28;;;;;;;4.68;4.13;;;16.10;99.90;;;;;;6247017;23;20223;-70
2023/09/04 04:46:54;;;;;;;6.15;5.15;;;16.10;99.90;;;;;;6247956;23;20003;-71
2023/09/04 04:49:21;;;;;;;8.40;4.93;;;16.00;99.90;;;;;;6231975;23;20010;-70
2023/09/04 04:51:47;;;;;;;6.85;4.93;;;16.00;99.90;;;;;;6261230;22;20247;-70
2023/09/04 04:54:12;;;;;;;8.75;5.05;;;16.00;99.90;;;;;;6260885;23;20026;-70
2023/09/04 04:56:39;;;;;;;5.63;4.83;;;16.00;99.90;;;;;;6253622;23;20023;-70
2023/09/04 04:59:05;;;;;;;7.47;5.20;;;16.00;99.90;;;;;;6247752;23;20004;-71
2023/09/04 05:01:31;;;;;;;;;;;15.90;99.90;;;;;;6247972;22;20004;-70
2023/09/04 05:03:56;;;;;;;5.75;4.53;;;15.90;99.90;;;;;;6246845;23;19961;-70
2023/09/04 05:06:22;;;;;;;7.95;5.47;;;15.90;99.90;;;;;;6246911;23;20004;-71
2023/09/04 05:08:48;;;;;;;5.53;4.93;;;15.90;99.90;;;;;;6247390;23;20420;-72
2023/09/04 05:11:13;;;;;;;6.60;4.60;;;16.00;99.90;;;;;;6220305;22;20004;-70
2023/09/04 05:13:39;;;;;;;7.13;4.90;;;15.90;99.90;;;;;;6247039;23;20008;-71
2023/09/04 05:16:05;;;;;;;6.47;4.53;;;16.00;99.90;;;;;;6247046;23;20562;-71
2023/09/04 05:18:31;;;;;;;6.43;4.68;;;16.00;99.90;;;;;;6246712;23;20076;-70
2023/09/04 05:20:57;;;;;;;7.35;4.72;;;16.00;99.90;;;;;;6247429;23;20000;-70
2023/09/04 05:23:22;;;;;;;7.07;5.40;;;16.10;99.90;;;;;;6246417;22;20000;-71
2023/09/04 05:25:49;;;;;;;5.30;4.50;;;16.10;99.90;;;;;;6220211;23;20000;-70
2023/09/04 05:28:15;;;;;;;6.82;5.22;;;16.20;99.90;;;;;;6247116;23;19996;-71
2023/09/04 05:30:40;;;;;;;7.33;4.73;;;16.20;99.90;;;;;;6250244;23;20056;-71
2023/09/04 05:33:06;;;;;;;6.70;4.50;;;16.20;99.90;;;;;;6249097;22;20555;-71
2023/09/04 05:35:31;;;;;;;6.13;4.45;;;16.30;99.90;;;;;;6247518;23;20376;-70
2023/09/04 05:37:58;;;;;;;6.80;4.90;;;16.30;99.90;;;;;;6219584;23;20008;-71
2023/09/04 05:40:26;;;;;;;8.80;5.35;;;16.30;99.90;;;;;;6246336;23;20286;-68
2023/09/04 05:42:52;;;;;;;6.18;4.38;;;16.30;99.90;;;;;;6219806;23;20008;-72
2023/09/04 05:45:19;;;;;;;8.50;4.77;;;16.40;99.90;;;;;;6220460;23;20445;-72
2023/09/04 05:47:45;;;;;;;5.20;4.45;;;16.40;99.90;;;;;;6221644;23;20300;-73
2023/09/04 05:50:11;;;;;;;6.20;4.88;;;16.50;99.90;;;;;;6247662;23;20434;-71
2023/09/04 05:52:37;;;;;;;5.93;4.78;;;16.50;99.90;;;;;;6247111;22;20039;-71
2023/09/04 05:55:03;;;;;;;5.00;4.22;;;16.60;99.90;;;;;;6247343;23;20011;-71
2023/09/04 05:57:28;;;;;;;6.47;4.55;;;16.70;99.90;;;;;;6220912;23;20008;-70
2023/09/04 05:59:54;;;;;;;6.55;4.32;;;16.80;99.90;;;;;;6247553;23;20381;-71
2023/09/04 06:02:20;;;;;;;6.25;4.22;;;16.80;99.90;;;;;;6247397;22;20403;-71
2023/09/04 06:04:45;;;;;;;7.13;4.25;;;16.90;99.90;;;;;;6219752;23;20000;-69
2023/09/04 06:07:11;;;;;;;6.70;4.37;;;17.00;99.90;;;;;;6219899;23;20043;-70
2023/09/04 06:09:40;;;;;;;5.68;4.20;;;17.10;99.90;;;;;;6246834;23;20681;-70
2023/09/04 06:12:09;;;;;;;7.03;4.10;;;17.10;99.90;;;;;;6247051;22;20027;-70
2023/09/04 06:14:35;;;;;;;7.45;4.28;;;17.10;99.90;;;;;;6217459;23;20000;-70
2023/09/04 06:17:00;;;;;;;7.80;4.60;;;17.20;99.90;;;;;;6218303;23;19997;-69
2023/09/04 06:19:27;;;;;;;5.78;4.22;;;17.20;99.90;;;;;;6217950;23;20332;-70
2023/09/04 06:21:53;;;;;;;6.18;4.05;;;17.20;99.90;;;;;;6218090;23;20000;-70
2023/09/04 06:24:19;;;;;;;7.70;4.10;;;17.30;99.90;;;;;;6218360;23;20015;-71
2023/09/04 06:26:45;;;;;;;4.80;3.72;;;17.30;99.90;;;;;;6218792;23;20423;-72
2023/09/04 06:29:10;;;;;;;5.60;4.37;;;17.40;99.90;;;;;;6218662;23;20008;-73
2023/09/04 06:31:36;;;;;;;6.67;4.10;;;17.50;99.90;;;;;;6245406;22;20253;-72
2023/09/04 06:34:03;;;;;;;8.35;4.32;;;17.60;99.90;;;;;;6246029;23;20227;-73
2023/09/04 06:36:29;;;;;;;5.40;4.10;;;17.60;99.90;;;;;;6219480;23;20012;-73
2023/09/04 06:38:54;;;;;;;4.78;3.90;;;17.70;99.90;;;;;;6245848;23;20002;-73
2023/09/04 06:41:21;;;;;;;5.80;3.97;;;17.80;99.90;;;;;;6245410;22;20008;-68
2023/09/04 06:43:46;;;;;;;;;;;17.90;99.90;;;;;;6246294;23;20008;-69
2023/09/04 06:46:12;;;;;;;6.32;4.00;;;18.00;99.90;;;;;;6246530;23;19900;-69
2023/09/04 06:48:38;;;;;;;6.28;3.92;;;18.00;99.90;;;;;;6218724;23;19997;-67
2023/09/04 06:51:04;;;;;;;4.97;3.83;;;18.10;99.90;;;;;;6218617;22;20004;-68
2023/09/04 06:53:29;;;;;;;6.00;4.07;;;18.10;99.90;;;;;;6245542;23;20022;-66
2023/09/04 06:55:55;;;;;;;5.18;3.60;;;18.30;99.90;;;;;;6218831;23;20008;-66
2023/09/04 06:58:21;;;;;;;5.63;3.67;;;18.40;99.90;;;;;;6245700;23;20435;-66
2023/09/04 07:00:46;;;;;;;5.35;4.25;;;18.50;99.90;;;;;;6245767;23;20004;-66
2023/09/04 07:03:12;;;;;;;16.02;4.65;;;18.50;99.90;;;;;;6244987;22;20000;-66
2023/09/04 07:05:37;;;;;;;9.10;4.57;;;18.60;99.90;;;;;;6245601;23;20001;-67
2023/09/04 07:08:04;;;;;;;6.05;3.78;;;18.70;99.90;;;;;;6246098;23;20012;-68
2023/09/04 07:10:31;;;;;;;4.60;3.60;;;18.80;99.90;;;;;;6245492;23;19997;-67
2023/09/04 07:12:58;;;;;;;6.95;3.63;;;18.90;99.90;;;;;;6245620;22;20005;-66
2023/09/04 07:15:24;;;;;;;5.45;3.63;;;19.00;99.90;;;;;;6217984;23;20368;-67
2023/09/04 07:17:49;;;;;;;7.70;3.83;;;19.20;99.90;;;;;;6219655;23;20004;-67
2023/09/04 07:20:15;;;;;;;4.47;3.67;;;19.20;99.90;;;;;;6220142;23;20004;-66
2023/09/04 07:22:40;;;;;;;5.20;3.70;;;19.30;99.90;;;;;;6247457;22;20007;-67
2023/09/04 07:25:06;;;;;;;6.22;3.97;;;19.30;99.90;;;;;;6247473;23;20004;-67
2023/09/04 07:27:32;;;;;;;6.82;4.28;;;19.40;99.90;;;;;;6247131;23;20000;-66
2023/09/04 07:29:58;;;;;;;5.60;3.88;;;19.50;99.90;;;;;;6220420;23;20153;-66
2023/09/04 07:32:25;;;;;;;6.90;3.75;;;19.60;99.90;;;;;;6247787;22;20027;-66
2023/09/04 07:34:55;;;;;;;5.03;4.00;;;19.70;99.90;;;;;;6247426;23;20083;-67
2023/09/04 07:37:28;;;;;;;4.63;3.65;;;19.80;99.90;;;;;;6221525;23;20012;-66
2023/09/04 07:39:54;;;;;;;4.32;3.58;;;20.00;99.90;;;;;;6220220;23;20004;-68
2023/09/04 07:42:19;;;;;;;;;;;20.10;99.90;;;;;;6247607;22;20094;-68
2023/09/04 07:44:45;;;;;;;5.40;3.35;;;20.10;99.90;;;;;;6247146;23;19981;-67
2023/09/04 07:47:11;;;;;;;4.78;3.42;;;20.20;99.90;;;;;;6247307;23;20007;-66
2023/09/04 07:49:36;;;;;;;3.95;3.55;;;20.30;99.90;;;;;;6219346;23;20007;-66
2023/09/04 07:52:02;;;;;;;5.13;3.65;;;20.40;99.90;;;;;;6223174;22;20087;-72
2023/09/04 07:54:28;;;;;;;5.80;3.88;;;20.50;99.90;;;;;;6282491;22;20014;-68
2023/09/04 07:56:53;;;;;;;4.65;3.63;;;20.60;99.90;;;;;;6280035;22;20406;-67
2023/09/04 07:59:19;;;;;;;3.90;3.40;;;20.70;99.90;;;;;;6278570;22;20011;-66
2023/09/04 08:01:44;;;;;;;6.85;3.60;;;20.70;99.90;;;;;;6275686;22;20475;-67
2023/09/04 08:04:10;;;;;;;5.40;3.95;;;20.90;99.90;;;;;;6246065;23;20423;-67
2023/09/04 08:06:36;;;;;;;6.97;3.92;;;21.00;99.90;;;;;;6247370;23;20326;-69
2023/09/04 08:09:01;;;;;;;4.38;3.40;;;21.10;99.90;;;;;;6245363;23;20046;-68
2023/09/04 08:11:27;;;;;;;6.10;3.47;;;21.20;99.90;;;;;;6247443;22;20000;-67
2023/09/04 08:13:53;;;;;;;3.78;3.35;;;21.40;99.90;;;;;;6246135;22;20087;-67
2023/09/04 08:16:18;;;;;;;4.63;3.30;;;21.30;99.90;;;;;;6247483;23;20032;-68
2023/09/04 08:18:44;;;;;;;5.90;3.40;;;21.50;99.90;;;;;;6247184;23;20009;-68
2023/09/04 08:21:09;;;;;;;5.30;3.25;;;21.70;99.90;;;;;;6247396;23;20078;-67
2023/09/04 08:23:35;;;;;;;4.25;3.25;;;21.80;99.90;;;;;;6247251;22;20087;-66
2023/09/04 08:26:02;;;;;;;5.15;3.42;;;21.80;99.90;;;;;;6247347;23;20062;-66
2023/09/04 08:28:28;;;;;;;3.75;3.30;;;21.90;99.90;;;;;;6247507;22;20071;-67
2023/09/04 08:30:54;;;;;;;6.00;3.10;;;22.10;99.90;;;;;;6245441;23;20031;-67
2023/09/04 08:33:20;;;;;;;6.70;3.20;;;22.10;99.90;;;;;;6245403;22;20004;-67
2023/09/04 08:35:45;;;;;;;6.25;3.28;;;22.40;99.90;;;;;;6245453;23;20000;-66
2023/09/04 08:38:11;;;;;;;4.72;3.00;;;22.50;99.90;;;;;;6247040;23;20004;-66
2023/09/04 08:40:40;;;;;;;18.95;3.65;;;22.80;99.90;;;;;;6246844;23;20342;-68
2023/09/04 08:43:07;;;;;;;8.23;3.30;;;22.90;99.90;;;;;;6246918;22;20376;-68
2023/09/04 08:45:35;;;;;;;5.38;3.63;;;23.40;99.90;;;;;;6246937;22;20006;-67
2023/09/04 08:48:02;;;;;;;6.65;3.00;;;24.60;99.90;;;;;;6246758;22;20308;-66
2023/09/04 08:50:28;;;;;;;3.10;2.65;;;27.40;99.50;;;;;;6246694;22;19996;-66
2023/09/04 08:52:53;;;;;;;5.68;2.42;;;30.00;95.70;;;;;;6246037;22;20035;-68
2023/09/04 08:55:20;;;;;;;3.13;2.83;;;32.30;92.70;;;;;;6246601;23;20075;-68
2023/09/04 08:57:45;;;;;;;4.13;2.40;;;33.60;89.00;;;;;;6246557;22;20003;-65
2023/09/04 09:00:11;;;;;;;3.72;2.80;;;33.80;86.70;;;;;;6246793;23;20023;-66
2023/09/04 09:02:38;;;;;;;4.90;2.60;;;34.10;86.10;;;;;;6246483;22;20091;-66
2023/09/04 09:05:04;;;;;;;3.75;2.60;;;34.40;83.40;;;;;;6246741;22;20039;-65
2023/09/04 09:07:30;;;;;;;5.00;3.00;;;34.50;81.90;;;;;;6246299;22;20000;-65
2023/09/04 09:10:04;;;;;;;6.90;2.83;;;35.10;80.50;;;;;;6246593;22;20004;-67
2023/09/04 09:12:30;;;;;;;3.75;2.50;;;35.10;79.80;;;;;;6246429;22;20004;-68
2023/09/04 09:14:58;;;;;;;5.03;2.67;;;35.00;79.80;;;;;;6247067;23;20007;-68
2023/09/04 09:17:24;;;;;;;4.78;2.80;;;35.80;77.90;;;;;;6246558;22;20007;-66
2023/09/04 09:19:49;;;;;;;2.55;2.35;;;36.20;76.90;;;;;;6246840;23;20008;-67
2023/09/04 09:22:17;;;;;;;3.20;2.63;;;37.50;75.00;;;;;;6246305;22;20039;-65
2023/09/04 09:24:54;;;;;;;3.33;2.85;;;38.10;72.70;;;;;;6247054;22;20006;-66
2023/09/04 09:27:24;;;;;;;4.15;2.50;;;38.50;70.70;;;;;;6245045;23;20085;-66
2023/09/04 09:29:51;;;;;;;4.75;2.67;;;38.30;70.20;;;;;;6245081;23;20015;-66
2023/09/04 09:32:18;;;;;;;4.35;2.30;;;39.00;69.60;;;;;;6246528;22;20004;-66
2023/09/04 09:34:51;;;;;;;4.55;2.70;;;38.70;68.10;;;;;;6246206;22;20027;-65
2023/09/04 09:37:20;;;;;;;5.50;2.85;;;38.40;67.90;;;;;;6246154;22;20125;-66
2023/09/04 09:39:46;;;;;;;4.68;2.63;;;37.80;68.40;;;;;;6245981;22;20080;-67
2023/09/04 09:42:12;;;;;;;4.82;2.47;;;37.70;69.30;;;;;;6246883;22;20427;-70
2023/09/04 09:44:38;;;;;;;4.20;2.60;;;38.20;67.50;;;;;;6246820;22;20430;-66
2023/09/04 09:47:15;;;;;;;4.15;2.40;;;37.20;67.70;;;;;;6246211;23;20001;-67
2023/09/04 09:49:41;;;;;;;2.60;2.40;;;36.60;68.70;;;;;;6246352;22;20319;-66
2023/09/04 09:52:07;;;;;;;3.60;2.63;;;36.70;69.60;;;;;;6244110;22;20008;-67
2023/09/04 09:54:37;;;;;;;3.03;2.63;;;37.10;69.10;;;;;;6246554;22;20001;-68
2023/09/04 09:57:10;;;;;;;5.18;2.63;;;37.00;68.00;;;;;;6246513;22;20331;-69
2023/09/04 09:59:38;;;;;;;4.28;2.70;;;36.10;68.50;;;;;;6246499;22;20000;-68
2023/09/04 10:02:04;;;;;;;3.03;2.42;;;35.50;68.60;;;;;;6245788;22;20072;-67
2023/09/04 10:04:31;;;;;;;4.25;2.60;;;35.20;69.60;;;;;;6246494;22;20000;-67
2023/09/04 10:07:02;;;;;;;3.55;2.50;;;35.00;69.90;;;;;;6246514;22;20322;-67
2023/09/04 10:09:34;;;;;;;2.92;2.50;;;35.60;68.60;;;;;;6246196;22;20027;-67
2023/09/04 10:12:07;;;;;;;6.43;2.75;;;36.10;68.40;;;;;;6244990;22;20008;-68
2023/09/04 10:14:38;;;;;;;5.85;2.90;;;36.80;66.50;;;;;;6244334;23;20011;-69
2023/09/04 10:17:08;;;;;;;4.45;2.50;;;36.80;66.90;;;;;;6246180;22;20079;-67
2023/09/04 10:19:35;;;;;;;3.10;2.80;;;36.40;67.50;;;;;;6246051;22;20042;-67
2023/09/04 10:22:08;;;;;;;2.83;2.42;;;36.30;67.00;;;;;;6245792;22;20004;-68
2023/09/04 10:24:45;;;;;;;6.25;2.80;;;35.90;67.30;;;;;;6247054;22;20000;-67
2023/09/04 10:27:13;;;;;;;4.25;2.63;;;36.00;67.70;;;;;;6251484;22;20374;-68
2023/09/04 10:29:46;;;;;;;4.32;2.63;;;36.40;66.70;;;;;;6246000;23;20000;-68
2023/09/04 10:32:13;;;;;;;3.95;2.72;;;35.60;66.60;;;;;;6246680;22;19996;-67
2023/09/04 10:34:40;;;;;;;3.67;2.63;;;35.50;67.10;;;;;;6245990;22;20054;-68
2023/09/04 10:37:09;;;;;;;3.92;2.50;;;34.70;67.30;;;;;;6246283;22;19996;-68
2023/09/04 10:39:35;;;;;;;2.88;2.60;;;34.60;67.50;;;;;;6245484;23;20087;-69
2023/09/04 10:42:02;;;;;;;3.72;2.50;;;34.30;67.70;;;;;;6246805;22;20054;-70
2023/09/04 10:44:49;;;;;;;2.90;2.45;;;35.00;67.50;;;;;;6247153;22;20004;-70
2023/09/04 10:47:16;;;;;;;11.18;2.50;;;35.20;65.80;;;;;;6244294;23;20005;-69
2023/09/04 10:49:42;;;;;;;5.97;2.60;;;34.60;65.50;;;;;;6246289;22;20124;-70
2023/09/04 10:52:08;;;;;;;3.58;2.30;;;34.70;66.10;;;;;;6249991;22;20008;-71
2023/09/04 10:54:34;;;;;;;3.60;2.40;;;34.90;65.20;;;;;;6256403;22;20008;-71
2023/09/04 10:57:05;;;;;;;5.10;2.80;;;35.10;65.00;;;;;;6247285;23;20000;-70
2023/09/04 10:59:53;;;;;;;4.82;2.35;;;35.60;64.90;;;;;;6246606;23;20331;-72
2023/09/04 11:02:44;;;;;;;4.57;2.50;;;34.90;65.20;;;;;;6248132;22;19992;-71
2023/09/04 11:05:10;;;;;;;3.00;2.70;;;34.80;65.50;;;;;;6246905;23;20038;-71
2023/09/04 11:07:36;;;;;;;3.67;2.55;;;34.80;65.60;;;;;;6247786;23;20028;-70
2023/09/04 11:10:13;;;;;;;4.05;2.42;;;33.10;66.30;;;;;;6248031;22;20510;-71
2023/09/04 11:12:38;;;;;;;4.03;2.75;;;31.50;67.90;;;;;;6248086;22;20007;-71
2023/09/04 11:15:11;;;;;;;3.60;2.80;;;30.40;69.90;;;;;;6248798;23;20004;-73
2023/09/04 11:17:40;;;;;;;3.92;2.60;;;29.60;71.90;;;;;;6246647;23;20008;-72
2023/09/04 11:20:06;;;;;;;3.80;2.85;;;29.10;72.90;;;;;;6246760;23;20446;-71
2023/09/04 11:22:34;;;;;;;10.15;3.10;;;28.50;73.40;;;;;;6248040;22;20007;-70
2023/09/04 11:24:59;;;;;;;7.60;2.78;;;28.10;73.90;;;;;;6248245;22;20000;-71
2023/09/04 11:27:26;;;;;;;6.20;2.63;;;27.90;74.10;;;;;;6247818;23;20094;-72
2023/09/04 11:29:52;;;;;;;4.57;2.25;;;27.60;74.60;;;;;;6248550;22;20036;-71
2023/09/04 11:32:19;;;;;;;4.22;2.50;;;27.40;73.90;;;;;;6248466;22;20012;-72
2023/09/04 11:34:45;;;;;;;5.13;2.65;;;27.30;74.30;;;;;;6247895;22;20071;-71
2023/09/04 11:37:14;;;;;;;5.97;2.70;;;27.40;73.40;;;;;;6249382;22;20001;-72
2023/09/04 11:40:00;;;;;;;3.92;2.72;;;27.30;72.50;;;;;;6246114;23;19997;-70
2023/09/04 11:42:27;;;;;;;3.45;2.55;;;27.30;72.50;;;;;;6248337;22;20054;-70
2023/09/04 11:44:53;;;;;;;3.75;2.95;;;27.20;73.10;;;;;;6248334;22;20000;-70
2023/09/04 11:47:19;;;;;;;4.90;2.80;;;27.30;73.20;;;;;;6248268;22;20067;-70
2023/09/04 11:49:49;;;;;;;5.72;2.45;;;27.30;73.50;;;;;;6246238;23;20034;-70
2023/09/04 11:52:19;;;;;;;3.75;2.67;;;27.40;73.70;;;;;;6247110;22;20485;-70
2023/09/04 11:54:45;;;;;;;4.90;2.60;;;27.40;73.60;;;;;;6247074;22;20006;-70
2023/09/04 11:57:11;;;;;;;4.13;2.90;;;27.40;73.30;;;;;;6246041;23;20023;-70
2023/09/04 11:59:38;;;;;;;8.32;2.67;;;27.50;74.00;;;;;;6245732;23;20003;-70
2023/09/04 12:02:04;;;;;;;5.85;2.60;;;27.50;73.40;;;;;;6245334;22;20035;-70
2023/09/04 12:04:33;;;;;;;5.28;2.80;;;27.60;72.80;;;;;;6247881;22;20008;-72
2023/09/04 12:07:06;;;;;;;3.00;2.60;;;27.60;72.80;;;;;;6246997;23;20339;-71
2023/09/04 12:09:34;;;;;;;4.35;2.53;;;27.50;73.10;;;;;;6248584;22;20391;-70
2023/09/04 12:12:04;;;;;;;4.13;2.92;;;27.50;73.20;;;;;;6247757;22;19996;-70
2023/09/04 12:14:30;;;;;;;7.72;3.03;;;27.50;73.00;;;;;;6247504;22;20080;-69
2023/09/04 12:16:55;;;;;;;4.95;2.60;;;27.60;71.00;;;;;;6247420;23;20023;-70
2023/09/04 12:19:23;;;;;;;3.10;2.80;;;27.70;71.70;;;;;;6247352;23;19996;-70
2023/09/04 12:21:49;;;;;;;3.83;2.30;;;27.70;71.80;;;;;;6247477;22;20071;-69
2023/09/04 12:24:15;;;;;;;4.68;2.65;;;27.70;72.60;;;;;;6246859;22;20039;-69
2023/09/04 12:26:42;;;;;;;2.97;2.58;;;27.80;73.00;;;;;;6247373;22;20067;-69
2023/09/04 12:29:08;;;;;;;5.43;2.70;;;27.90;71.10;;;;;;6247841;22;20007;-69
2023/09/04 12:31:34;;;;;;;3.70;2.70;;;28.00;70.50;;;;;;6247041;22;20008;-69
2023/09/04 12:34:01;;;;;;;3.60;2.70;;;28.00;70.00;;;;;;6247606;23;20004;-70
2023/09/04 12:36:29;;;;;;;4.03;2.60;;;28.00;69.40;;;;;;6247190;23;20004;-70
2023/09/04 12:38:55;;;;;;;5.75;2.75;;;28.00;69.50;;;;;;6246859;22;20004;-70
2023/09/04 12:41:20;;;;;;;4.93;2.65;;;28.10;70.10;;;;;;6246903;23;20015;-68
2023/09/04 12:43:46;;;;;;;4.18;2.50;;;28.10;69.80;;;;;;6246834;22;20004;-68
2023/09/04 12:46:11;;;;;;;3.90;3.30;;;28.20;70.00;;;;;;6247150;23;19996;-70